Raleigh County Memorial Airport Beckley US
ICAO: KBKW
IATA: BKW
Category: Medium
Scheduled Services: Yes

Elevation: 2504 ft
TransAlt. 18000 ft.

Airport Communications:
CHARLESTON APP/DEP:118.95
ASOS:121.55
AWOS 3:124.65
ELKINS RDO:117.7
CTAF/UNICOM:123

KBKW Zoom In..

Runways:

(A) RW 01 length 6750 ft width 150 ft
---- / hdg 13

(B) RW 10 length 5001 ft width 100 ft
---- / hdg 103

(C) RW 19 length 6750 ft width 150 ft
ILS 111.70 / hdg 193

(D) RW 28 length 5001 ft width 100 ft
---- / hdg 283

Location; KBKW
Day. 19 / Time. 20.51 Zulu
* Altimeter: 30.14
* Temperature: 02° c. 35.6°f.
* Wind from: 320° Speed 13 kn with Gusts up to 21 kn.
Dewpoint: -03° c.
Visibility: 10 Statute Miles.
Clouds: Broken 2200 ft.
Clouds: Overcast 2900 ft.

KBKW 192051Z AUTO 32013G21KT 10SM BKN022 OVC029 02/M03 A3014 RMK AO2 SLP218 T00221028 51020 TSNO


Wind From 320°
Speed 13 kn.

  YouTube Music Video
 
jpsmedia.com for Web Design  worldairports.se 2018   terms of use